createdAt,value
2022-11-05T00:00:15.162Z,8.99
2022-11-05T00:04:55.875Z,9.06
2022-11-05T00:09:16.321Z,9.07
2022-11-05T00:13:36.689Z,9.08
2022-11-05T00:17:38.662Z,8.96
2022-11-05T00:21:59.037Z,9.05
2022-11-05T00:26:06.480Z,9.03
2022-11-05T00:30:09.622Z,9.03
2022-11-05T00:34:11.617Z,8.99
2022-11-05T00:38:13.692Z,8.95
2022-11-05T00:42:34.067Z,9.00
2022-11-05T00:46:36.116Z,9.08
2022-11-05T00:50:37.779Z,9.01
2022-11-05T00:54:39.786Z,8.90
2022-11-05T00:58:41.508Z,8.95
2022-11-05T01:02:43.657Z,8.94
2022-11-05T01:06:45.407Z,8.93
2022-11-05T01:10:56.610Z,8.92
2022-11-05T01:14:58.615Z,8.98
2022-11-05T01:19:01.987Z,8.98
2022-11-05T01:23:05.498Z,8.96
2022-11-05T01:27:10.753Z,8.87
2022-11-05T01:31:12.370Z,8.83
2022-11-05T01:35:16.939Z,8.78
2022-11-05T01:39:18.561Z,8.78
2022-11-05T01:43:23.132Z,8.75
2022-11-05T01:47:32.339Z,8.75
2022-11-05T01:51:34.950Z,8.73
2022-11-05T01:55:41.623Z,8.74
2022-11-05T01:59:48.501Z,8.75
2022-11-05T02:03:55.313Z,8.66
2022-11-05T02:07:57.740Z,8.61
2022-11-05T02:11:59.387Z,8.53
2022-11-05T02:16:29.833Z,8.61
2022-11-05T02:20:45.697Z,8.65
2022-11-05T02:24:59.585Z,8.60
2022-11-05T02:29:16.831Z,8.63
2022-11-05T02:33:41.803Z,8.62
2022-11-05T02:37:57.394Z,8.51
2022-11-05T02:42:30.128Z,8.53
2022-11-05T02:46:56.275Z,8.54
2022-11-05T02:51:10.437Z,8.49
2022-11-05T02:55:23.595Z,8.38
2022-11-05T02:59:25.574Z,8.37
2022-11-05T03:03:43.743Z,8.33
2022-11-05T03:07:56.176Z,8.31
2022-11-05T03:12:18.165Z,8.32
2022-11-05T03:16:40.328Z,8.31
2022-11-05T03:20:59.022Z,8.29
2022-11-05T03:25:08.149Z,8.27
2022-11-05T03:29:16.878Z,8.24
2022-11-05T03:33:23.858Z,8.23
2022-11-05T03:37:28.621Z,8.21
2022-11-05T03:41:32.945Z,8.30
2022-11-05T03:45:41.819Z,8.26
2022-11-05T03:49:50.609Z,8.15
2022-11-05T03:53:57.650Z,8.31
2022-11-05T03:57:59.698Z,8.33
2022-11-05T04:02:02.670Z,8.27
2022-11-05T04:06:24.955Z,8.30
2022-11-05T04:11:04.812Z,8.32
2022-11-05T04:15:07.924Z,8.29
2022-11-05T04:19:09.672Z,8.38
2022-11-05T04:23:30.502Z,8.26
2022-11-05T04:27:32.256Z,8.24
2022-11-05T04:31:34.134Z,8.29
2022-11-05T04:35:46.997Z,8.38
2022-11-05T04:39:49.101Z,8.29
2022-11-05T04:43:50.688Z,8.14
2022-11-05T04:47:52.681Z,8.13
2022-11-05T04:51:54.487Z,7.92
2022-11-05T04:56:09.579Z,7.93
2022-11-05T05:00:11.407Z,8.01
2022-11-05T05:04:14.568Z,7.97
2022-11-05T05:08:16.241Z,7.90
2022-11-05T05:12:18.309Z,7.87
2022-11-05T05:16:25.148Z,7.84
2022-11-05T05:20:45.656Z,7.77
2022-11-05T05:24:52.420Z,7.82
2022-11-05T05:28:54.904Z,7.81
2022-11-05T05:32:56.508Z,7.90
2022-11-05T05:36:58.388Z,7.85
2022-11-05T05:41:00.662Z,7.86
2022-11-05T05:45:02.563Z,7.86
2022-11-05T05:49:07.996Z,7.87
2022-11-05T05:53:14.257Z,7.86
2022-11-05T05:57:15.922Z,7.86
2022-11-05T06:01:19.551Z,7.78
2022-11-05T06:05:21.863Z,7.83
2022-11-05T06:09:23.802Z,7.83
2022-11-05T06:13:26.260Z,7.84
2022-11-05T06:17:28.292Z,7.75
2022-11-05T06:21:30.037Z,7.76
2022-11-05T06:25:34.912Z,7.81
2022-11-05T06:29:38.938Z,7.82
2022-11-05T06:33:41.310Z,7.87
2022-11-05T06:37:43.066Z,7.92
2022-11-05T06:42:12.131Z,8.05
2022-11-05T06:46:07.562Z,8.06
2022-11-05T06:50:09.654Z,8.03
2022-11-05T06:54:11.425Z,8.01
2022-11-05T06:58:14.554Z,8.07
2022-11-05T07:02:17.955Z,7.94
2022-11-05T07:06:20.348Z,8.07
2022-11-05T07:10:22.014Z,8.10
2022-11-05T07:14:23.934Z,8.09
2022-11-05T07:18:25.857Z,8.23
2022-11-05T07:22:27.783Z,8.24
2022-11-05T07:26:34.235Z,8.35
2022-11-05T07:30:37.205Z,8.35
2022-11-05T07:34:38.890Z,8.43
2022-11-05T07:38:40.772Z,8.41
2022-11-05T07:42:47.683Z,8.38
2022-11-05T07:46:50.734Z,8.41
2022-11-05T07:50:53.276Z,8.26
2022-11-05T07:54:55.292Z,8.31
2022-11-05T07:58:56.959Z,8.46
2022-11-05T08:03:07.817Z,8.41
2022-11-05T08:07:11.484Z,8.47
2022-11-05T08:11:13.662Z,8.52
2022-11-05T08:15:15.385Z,8.52
2022-11-05T08:19:17.336Z,8.51
2022-11-05T08:23:18.977Z,8.61
2022-11-05T08:27:20.876Z,8.63
2022-11-05T08:31:22.665Z,8.63
2022-11-05T08:35:26.873Z,8.66
2022-11-05T08:39:28.735Z,8.67
2022-11-05T08:43:30.744Z,8.79
2022-11-05T08:47:32.582Z,8.85
2022-11-05T08:51:34.528Z,8.90
2022-11-05T08:55:36.424Z,8.89
2022-11-05T08:59:38.413Z,8.94
2022-11-05T09:03:40.110Z,8.91
2022-11-05T09:07:42.167Z,8.95
2022-11-05T09:12:10.437Z,8.89
2022-11-05T09:16:06.601Z,8.95
2022-11-05T09:20:11.257Z,9.00
2022-11-05T09:24:13.539Z,9.04
2022-11-05T09:28:20.655Z,9.20
2022-11-05T09:32:23.286Z,9.20
2022-11-05T09:36:24.967Z,9.28
2022-11-05T09:40:31.576Z,9.26
2022-11-05T09:44:44.868Z,9.41
2022-11-05T09:48:53.812Z,9.45
2022-11-05T09:52:55.406Z,9.44
2022-11-05T09:56:57.950Z,9.51
2022-11-05T10:01:00.392Z,9.46
2022-11-05T10:05:11.217Z,9.45
2022-11-05T10:09:40.140Z,9.36
2022-11-05T10:13:52.754Z,9.46
2022-11-05T10:17:59.674Z,9.30
2022-11-05T10:22:10.729Z,9.44
2022-11-05T10:26:15.992Z,9.45
2022-11-05T10:30:18.172Z,9.53
2022-11-05T10:34:22.942Z,9.55
2022-11-05T10:38:25.276Z,9.50
2022-11-05T10:42:36.633Z,9.56
2022-11-05T10:46:46.303Z,9.64
2022-11-05T10:50:48.509Z,9.38
2022-11-05T10:54:53.433Z,9.45
2022-11-05T10:58:58.427Z,9.46
2022-11-05T11:03:05.889Z,9.58
2022-11-05T11:07:21.709Z,9.52
2022-11-05T11:11:40.779Z,9.46
2022-11-05T11:15:42.434Z,9.61
2022-11-05T11:19:45.424Z,9.66
2022-11-05T11:24:04.843Z,9.67
2022-11-05T11:28:17.536Z,9.73
2022-11-05T11:32:21.219Z,9.61
2022-11-05T11:36:34.216Z,9.50
2022-11-05T11:40:38.169Z,9.53
2022-11-05T11:44:47.384Z,9.57
2022-11-05T11:48:49.902Z,9.57
2022-11-05T11:52:52.256Z,9.64
2022-11-05T11:56:53.915Z,9.59
2022-11-05T12:01:07.800Z,9.65
2022-11-05T12:05:18.800Z,9.46
2022-11-05T12:09:44.832Z,9.38
2022-11-05T12:14:09.719Z,9.40
2022-11-05T12:18:31.311Z,9.46
2022-11-05T12:22:54.402Z,9.38
2022-11-05T12:27:19.336Z,9.30
2022-11-05T12:31:35.908Z,9.30
2022-11-05T12:35:56.505Z,9.32
2022-11-05T12:40:34.425Z,9.35
2022-11-05T12:45:00.388Z,9.41
2022-11-05T12:49:07.923Z,9.31
2022-11-05T12:53:13.165Z,9.30
2022-11-05T12:57:16.497Z,9.34
2022-11-05T13:01:25.199Z,9.31
2022-11-05T13:05:41.778Z,9.27
2022-11-05T13:09:55.414Z,9.30
2022-11-05T13:14:06.053Z,9.27
2022-11-05T13:18:16.695Z,9.18
2022-11-05T13:22:38.796Z,9.24
2022-11-05T13:27:18.649Z,9.30
2022-11-05T13:31:27.350Z,9.19
2022-11-05T13:35:35.961Z,9.15
2022-11-05T13:39:49.230Z,9.24
2022-11-05T13:44:09.751Z,9.23
2022-11-05T13:48:29.988Z,9.19
2022-11-05T13:53:10.776Z,9.14
2022-11-05T13:57:39.522Z,8.92
2022-11-05T14:01:53.829Z,8.98
2022-11-05T14:06:07.789Z,8.89
2022-11-05T14:10:32.146Z,9.05
2022-11-05T14:14:44.605Z,9.10
2022-11-05T14:18:52.625Z,8.97
2022-11-05T14:23:23.275Z,8.98
2022-11-05T14:27:25.113Z,9.04
2022-11-05T14:31:54.481Z,9.07
2022-11-05T14:36:20.825Z,8.89
2022-11-05T14:40:22.592Z,8.93
2022-11-05T14:44:26.305Z,8.98
2022-11-05T14:48:37.549Z,8.96
2022-11-05T14:52:50.015Z,8.86
2022-11-05T14:56:56.728Z,8.88
2022-11-05T15:01:01.453Z,8.89
2022-11-05T15:05:31.234Z,8.77
2022-11-05T15:09:52.909Z,8.76
2022-11-05T15:13:54.790Z,8.75
2022-11-05T15:18:23.338Z,8.75
2022-11-05T15:22:30.783Z,8.63
2022-11-05T15:26:50.439Z,8.54
2022-11-05T15:31:19.544Z,8.62
2022-11-05T15:35:29.566Z,8.50
2022-11-05T15:39:33.131Z,8.62
2022-11-05T15:43:35.078Z,8.62
2022-11-05T15:47:36.805Z,8.49
2022-11-05T15:51:38.794Z,8.48
2022-11-05T15:55:54.571Z,8.41
2022-11-05T15:59:56.435Z,8.51
2022-11-05T16:04:15.686Z,8.38
2022-11-05T16:08:27.778Z,8.53
2022-11-05T16:12:34.987Z,8.40
2022-11-05T16:16:37.020Z,8.52
2022-11-05T16:20:38.842Z,8.50
2022-11-05T16:24:41.029Z,8.54
2022-11-05T16:28:50.351Z,8.51
2022-11-05T16:32:53.010Z,8.52
2022-11-05T16:36:57.071Z,8.48
2022-11-05T16:41:00.340Z,8.45
2022-11-05T16:45:02.006Z,8.44
2022-11-05T16:49:04.185Z,8.44
2022-11-05T16:53:06.272Z,8.44
2022-11-05T16:57:23.070Z,8.43
2022-11-05T17:01:25.233Z,8.50
2022-11-05T17:05:30.422Z,8.45
2022-11-05T17:09:32.047Z,8.40
2022-11-05T17:13:34.067Z,8.43
2022-11-05T17:17:35.705Z,8.38
2022-11-05T17:21:37.634Z,8.40
2022-11-05T17:25:40.915Z,8.41
2022-11-05T17:29:43.037Z,8.38
2022-11-05T17:33:44.747Z,8.42
2022-11-05T17:37:46.907Z,8.35
2022-11-05T17:41:48.896Z,8.45
2022-11-05T17:45:52.319Z,8.51
2022-11-05T17:49:53.974Z,8.40
2022-11-05T17:53:56.053Z,8.35
2022-11-05T17:57:57.709Z,8.55
2022-11-05T18:01:59.923Z,8.60
2022-11-05T18:06:02.958Z,8.60
2022-11-05T18:10:05.999Z,8.53
2022-11-05T18:14:08.510Z,8.60
2022-11-05T18:18:10.621Z,8.56
2022-11-05T18:22:12.487Z,8.48
2022-11-05T18:26:16.516Z,8.49
2022-11-05T18:30:18.799Z,8.57
2022-11-05T18:34:20.707Z,8.57
2022-11-05T18:38:22.581Z,8.60
2022-11-05T18:42:25.382Z,8.60
2022-11-05T18:46:55.848Z,8.62
2022-11-05T18:50:49.974Z,8.61
2022-11-05T18:54:51.775Z,8.63
2022-11-05T18:59:14.743Z,8.57
2022-11-05T19:03:15.797Z,8.64
2022-11-05T19:07:19.219Z,8.69
2022-11-05T19:11:23.333Z,8.69
2022-11-05T19:15:25.275Z,8.85
2022-11-05T19:19:27.591Z,8.92
2022-11-05T19:23:30.591Z,9.02
2022-11-05T19:27:32.420Z,9.06
2022-11-05T19:31:35.580Z,9.08
2022-11-05T19:35:41.545Z,9.05
2022-11-05T19:39:43.931Z,9.10
2022-11-05T19:43:45.903Z,9.14
2022-11-05T19:47:47.927Z,9.11
2022-11-05T19:51:49.749Z,9.12
2022-11-05T19:55:51.867Z,9.11
2022-11-05T19:59:53.509Z,9.04
2022-11-05T20:03:57.735Z,9.07
2022-11-05T20:07:59.840Z,9.11
2022-11-05T20:12:01.748Z,9.06
2022-11-05T20:16:04.056Z,9.13
2022-11-05T20:20:07.997Z,9.07
2022-11-05T20:24:11.746Z,9.10
2022-11-05T20:28:14.070Z,9.07
2022-11-05T20:32:15.929Z,9.12
2022-11-05T20:36:23.302Z,9.00
2022-11-05T20:40:25.029Z,9.04
2022-11-05T20:44:27.051Z,9.10
2022-11-05T20:48:33.021Z,9.10
2022-11-05T20:52:34.984Z,9.07
2022-11-05T20:56:36.880Z,9.07
2022-11-05T21:00:39.544Z,9.12
2022-11-05T21:04:41.223Z,9.05
2022-11-05T21:08:43.702Z,9.08
2022-11-05T21:12:45.369Z,9.10
2022-11-05T21:16:47.329Z,9.16
2022-11-05T21:20:49.486Z,9.16
2022-11-05T21:24:51.407Z,9.12
2022-11-05T21:28:53.039Z,9.12
2022-11-05T21:32:55.080Z,9.10
2022-11-05T21:36:56.749Z,9.15
2022-11-05T21:41:02.975Z,9.16
2022-11-05T21:45:05.485Z,9.21
2022-11-05T21:49:07.477Z,9.16
2022-11-05T21:53:32.424Z,9.27
2022-11-05T21:57:52.903Z,9.27
2022-11-05T22:02:01.371Z,9.29
2022-11-05T22:06:03.893Z,9.22
2022-11-05T22:10:13.295Z,9.31
2022-11-05T22:14:17.918Z,9.21
2022-11-05T22:18:19.554Z,9.24
2022-11-05T22:22:21.842Z,9.25
2022-11-05T22:26:23.530Z,9.27
2022-11-05T22:30:27.136Z,9.28
2022-11-05T22:34:28.832Z,9.19
2022-11-05T22:38:31.306Z,9.27
2022-11-05T22:42:33.037Z,9.20
2022-11-05T22:46:35.207Z,9.21
2022-11-05T22:50:36.807Z,9.32
2022-11-05T22:54:39.573Z,9.21
2022-11-05T22:58:42.182Z,9.26
2022-11-05T23:02:44.331Z,9.24
2022-11-05T23:07:04.786Z,9.28
2022-11-05T23:11:34.003Z,9.21
2022-11-05T23:15:54.434Z,9.16
2022-11-05T23:20:14.652Z,9.15
2022-11-05T23:24:16.436Z,9.19
2022-11-05T23:28:21.231Z,9.15
2022-11-05T23:32:25.501Z,9.19
2022-11-05T23:36:46.443Z,9.11
2022-11-05T23:41:06.862Z,9.09
2022-11-05T23:45:27.773Z,9.05
2022-11-05T23:49:29.577Z,9.13
2022-11-05T23:53:33.637Z,9.03
2022-11-05T23:57:35.548Z,8.97
